sensor_id;sensor_type;location;lat;lon;timestamp;pressure;altitude;pressure_sealevel;temperature;humidity
72157;BME280;60035;52.122;5.406;2024-03-02T00:02:25;99939.41;;;8.30;100.00
72157;BME280;60035;52.122;5.406;2024-03-02T00:04:57;99941.09;;;8.31;100.00
72157;BME280;60035;52.122;5.406;2024-03-02T00:07:29;99937.63;;;8.32;100.00
72157;BME280;60035;52.122;5.406;2024-03-02T00:10:08;99940.19;;;8.32;100.00
72157;BME280;60035;52.122;5.406;2024-03-02T00:12:41;99942.69;;;8.33;100.00
72157;BME280;60035;52.122;5.406;2024-03-02T00:15:31;99946.75;;;8.39;100.00
72157;BME280;60035;52.122;5.406;2024-03-02T00:18:11;99953.47;;;8.42;100.00
72157;BME280;60035;52.122;5.406;2024-03-02T00:20:43;99963.56;;;8.45;100.00
72157;BME280;60035;52.122;5.406;2024-03-02T00:23:15;99971.13;;;8.48;100.00
72157;BME280;60035;52.122;5.406;2024-03-02T00:25:50;99984.59;;;8.52;100.00
72157;BME280;60035;52.122;5.406;2024-03-02T00:28:24;99980.38;;;8.52;100.00
72157;BME280;60035;52.122;5.406;2024-03-02T00:30:58;99985.47;;;8.52;100.00
72157;BME280;60035;52.122;5.406;2024-03-02T00:33:32;100011.81;;;8.53;100.00
72157;BME280;60035;52.122;5.406;2024-03-02T00:36:05;100014.28;;;8.54;100.00
72157;BME280;60035;52.122;5.406;2024-03-02T00:38:44;100027.06;;;8.54;100.00
72157;BME280;60035;52.122;5.406;2024-03-02T00:41:22;100024.63;;;8.51;100.00
72157;BME280;60035;52.122;5.406;2024-03-02T00:43:58;100037.44;;;8.49;100.00
72157;BME280;60035;52.122;5.406;2024-03-02T00:46:33;100048.63;;;8.45;100.00
72157;BME280;60035;52.122;5.406;2024-03-02T00:49:11;100040.19;;;8.42;100.00
72157;BME280;60035;52.122;5.406;2024-03-02T00:51:46;100045.44;;;8.37;100.00
72157;BME280;60035;52.122;5.406;2024-03-02T00:54:20;100044.75;;;8.32;100.00
72157;BME280;60035;52.122;5.406;2024-03-02T00:56:55;100041.53;;;8.27;100.00
72157;BME280;60035;52.122;5.406;2024-03-02T00:59:26;100074.03;;;8.20;100.00
72157;BME280;60035;52.122;5.406;2024-03-02T01:01:59;100050.47;;;8.13;100.00
72157;BME280;60035;52.122;5.406;2024-03-02T01:04:30;100059.16;;;8.08;100.00
72157;BME280;60035;52.122;5.406;2024-03-02T01:07:02;100062.72;;;8.02;100.00
72157;BME280;60035;52.122;5.406;2024-03-02T01:09:34;100060.31;;;7.97;100.00
72157;BME280;60035;52.122;5.406;2024-03-02T01:12:08;100059.59;;;7.94;100.00
72157;BME280;60035;52.122;5.406;2024-03-02T01:14:40;100068.25;;;7.88;100.00
72157;BME280;60035;52.122;5.406;2024-03-02T01:17:11;100065.06;;;7.81;100.00
72157;BME280;60035;52.122;5.406;2024-03-02T01:19:42;100051.56;;;7.78;100.00
72157;BME280;60035;52.122;5.406;2024-03-02T01:22:14;100054.38;;;7.70;100.00
72157;BME280;60035;52.122;5.406;2024-03-02T01:24:51;100063.88;;;7.65;100.00
72157;BME280;60035;52.122;5.406;2024-03-02T01:27:25;100068.22;;;7.61;100.00
72157;BME280;60035;52.122;5.406;2024-03-02T01:29:56;100076.00;;;7.57;100.00
72157;BME280;60035;52.122;5.406;2024-03-02T01:32:28;100072.75;;;7.52;100.00
72157;BME280;60035;52.122;5.406;2024-03-02T01:34:59;100067.78;;;7.47;100.00
72157;BME280;60035;52.122;5.406;2024-03-02T01:37:31;100064.47;;;7.43;100.00
72157;BME280;60035;52.122;5.406;2024-03-02T01:40:03;100064.59;;;7.40;100.00
72157;BME280;60035;52.122;5.406;2024-03-02T01:42:39;100069.72;;;7.39;100.00
72157;BME280;60035;52.122;5.406;2024-03-02T01:45:12;100068.09;;;7.36;100.00
72157;BME280;60035;52.122;5.406;2024-03-02T01:47:44;100073.31;;;7.31;100.00
72157;BME280;60035;52.122;5.406;2024-03-02T01:50:16;100081.88;;;7.29;100.00
72157;BME280;60035;52.122;5.406;2024-03-02T01:52:48;100075.19;;;7.26;100.00
72157;BME280;60035;52.122;5.406;2024-03-02T01:55:19;100078.53;;;7.27;100.00
72157;BME280;60035;52.122;5.406;2024-03-02T01:57:53;100071.00;;;7.24;100.00
72157;BME280;60035;52.122;5.406;2024-03-02T02:00:26;100071.94;;;7.21;100.00
72157;BME280;60035;52.122;5.406;2024-03-02T02:02:58;100074.50;;;7.20;100.00
72157;BME280;60035;52.122;5.406;2024-03-02T02:05:29;100074.63;;;7.15;100.00
72157;BME280;60035;52.122;5.406;2024-03-02T02:08:01;100063.63;;;7.14;100.00
72157;BME280;60035;52.122;5.406;2024-03-02T02:10:33;100074.72;;;7.12;100.00
72157;BME280;60035;52.122;5.406;2024-03-02T02:13:07;100081.50;;;7.11;100.00
72157;BME280;60035;52.122;5.406;2024-03-02T02:15:39;100084.94;;;7.10;100.00
72157;BME280;60035;52.122;5.406;2024-03-02T02:18:10;100088.38;;;7.08;100.00
72157;BME280;60035;52.122;5.406;2024-03-02T02:20:42;100076.59;;;7.05;100.00
72157;BME280;60035;52.122;5.406;2024-03-02T02:23:16;100082.63;;;7.03;100.00
72157;BME280;60035;52.122;5.406;2024-03-02T02:25:47;100077.63;;;6.98;100.00
72157;BME280;60035;52.122;5.406;2024-03-02T02:28:19;100067.53;;;6.95;100.00
72157;BME280;60035;52.122;5.406;2024-03-02T02:30:50;100071.78;;;6.94;100.00
72157;BME280;60035;52.122;5.406;2024-03-02T02:33:21;100075.25;;;6.92;100.00
72157;BME280;60035;52.122;5.406;2024-03-02T02:35:53;100061.84;;;6.87;100.00
72157;BME280;60035;52.122;5.406;2024-03-02T02:38:27;100079.72;;;6.83;100.00
72157;BME280;60035;52.122;5.406;2024-03-02T02:40:58;100088.22;;;6.82;100.00
72157;BME280;60035;52.122;5.406;2024-03-02T02:43:29;100086.59;;;6.80;100.00
72157;BME280;60035;52.122;5.406;2024-03-02T02:46:01;100089.97;;;6.80;100.00
72157;BME280;60035;52.122;5.406;2024-03-02T02:48:32;100080.72;;;6.78;100.00
72157;BME280;60035;52.122;5.406;2024-03-02T02:51:04;100073.16;;;6.75;100.00
72157;BME280;60035;52.122;5.406;2024-03-02T02:53:38;100085.94;;;6.72;100.00
72157;BME280;60035;52.122;5.406;2024-03-02T02:56:09;100081.78;;;6.69;100.00
72157;BME280;60035;52.122;5.406;2024-03-02T02:58:41;100086.09;;;6.67;100.00
72157;BME280;60035;52.122;5.406;2024-03-02T03:01:12;100092.03;;;6.66;100.00
72157;BME280;60035;52.122;5.406;2024-03-02T03:03:44;100091.22;;;6.65;100.00
72157;BME280;60035;52.122;5.406;2024-03-02T03:06:16;100087.88;;;6.63;100.00
72157;BME280;60035;52.122;5.406;2024-03-02T03:08:50;100080.28;;;6.62;100.00
72157;BME280;60035;52.122;5.406;2024-03-02T03:11:21;100087.97;;;6.59;100.00
72157;BME280;60035;52.122;5.406;2024-03-02T03:13:54;100080.44;;;6.56;100.00
72157;BME280;60035;52.122;5.406;2024-03-02T03:16:25;100080.44;;;6.56;100.00
72157;BME280;60035;52.122;5.406;2024-03-02T03:18:57;100081.28;;;6.55;100.00
72157;BME280;60035;52.122;5.406;2024-03-02T03:21:28;100074.50;;;6.55;100.00
72157;BME280;60035;52.122;5.406;2024-03-02T03:24:03;100079.66;;;6.52;100.00
72157;BME280;60035;52.122;5.406;2024-03-02T03:26:35;100089.97;;;6.47;100.00
72157;BME280;60035;52.122;5.406;2024-03-02T03:29:07;100091.72;;;6.44;100.00
72157;BME280;60035;52.122;5.406;2024-03-02T03:31:38;100090.97;;;6.40;100.00
72157;BME280;60035;52.122;5.406;2024-03-02T03:34:09;100101.22;;;6.37;100.00
72157;BME280;60035;52.122;5.406;2024-03-02T03:36:43;100092.00;;;6.33;100.00
72157;BME280;60035;52.122;5.406;2024-03-02T03:39:17;100097.13;;;6.31;100.00
72157;BME280;60035;52.122;5.406;2024-03-02T03:41:48;100100.53;;;6.30;100.00
72157;BME280;60035;52.122;5.406;2024-03-02T03:44:20;100103.06;;;6.30;100.00
72157;BME280;60035;52.122;5.406;2024-03-02T03:46:52;100093.72;;;6.32;100.00
72157;BME280;60035;52.122;5.406;2024-03-02T03:49:23;100102.13;;;6.34;100.00
72157;BME280;60035;52.122;5.406;2024-03-02T03:51:54;100110.56;;;6.37;100.00
72157;BME280;60035;52.122;5.406;2024-03-02T03:54:28;100116.44;;;6.39;100.00
72157;BME280;60035;52.122;5.406;2024-03-02T03:57:00;100119.78;;;6.41;100.00
72157;BME280;60035;52.122;5.406;2024-03-02T03:59:32;100109.56;;;6.42;100.00
72157;BME280;60035;52.122;5.406;2024-03-02T04:02:04;100101.91;;;6.44;100.00
72157;BME280;60035;52.122;5.406;2024-03-02T04:04:36;100104.41;;;6.47;100.00
72157;BME280;60035;52.122;5.406;2024-03-02T04:07:08;100103.50;;;6.48;100.00
72157;BME280;60035;52.122;5.406;2024-03-02T04:09:42;100111.94;;;6.50;100.00
72157;BME280;60035;52.122;5.406;2024-03-02T04:12:13;100111.91;;;6.52;100.00
72157;BME280;60035;52.122;5.406;2024-03-02T04:14:44;100119.44;;;6.55;100.00
72157;BME280;60035;52.122;5.406;2024-03-02T04:17:16;100116.88;;;6.56;100.00
72157;BME280;60035;52.122;5.406;2024-03-02T04:19:47;100126.22;;;6.56;100.00
72157;BME280;60035;52.122;5.406;2024-03-02T04:22:19;100117.72;;;6.57;100.00
72157;BME280;60035;52.122;5.406;2024-03-02T04:24:55;100124.47;;;6.58;100.00
72157;BME280;60035;52.122;5.406;2024-03-02T04:27:26;100127.84;;;6.58;100.00
72157;BME280;60035;52.122;5.406;2024-03-02T04:29:58;100124.47;;;6.58;100.00
72157;BME280;60035;52.122;5.406;2024-03-02T04:32:29;100120.16;;;6.60;100.00
72157;BME280;60035;52.122;5.406;2024-03-02T04:35:01;100130.34;;;6.60;100.00
72157;BME280;60035;52.122;5.406;2024-03-02T04:37:34;100126.09;;;6.60;100.00
72157;BME280;60035;52.122;5.406;2024-03-02T04:40:09;100133.75;;;6.60;100.00
72157;BME280;60035;52.122;5.406;2024-03-02T04:42:41;100136.28;;;6.60;100.00
72157;BME280;60035;52.122;5.406;2024-03-02T04:45:12;100142.19;;;6.61;100.00
72157;BME280;60035;52.122;5.406;2024-03-02T04:47:44;100137.94;;;6.61;100.00
72157;BME280;60035;52.122;5.406;2024-03-02T04:50:16;100135.38;;;6.61;100.00
72157;BME280;60035;52.122;5.406;2024-03-02T04:52:48;100146.41;;;6.62;100.00
72157;BME280;60035;52.122;5.406;2024-03-02T04:55:22;100150.69;;;6.60;100.00
72157;BME280;60035;52.122;5.406;2024-03-02T04:58:20;100159.19;;;6.60;100.00
72157;BME280;60035;52.122;5.406;2024-03-02T05:00:51;100154.09;;;6.59;100.00
72157;BME280;60035;52.122;5.406;2024-03-02T05:03:22;100155.03;;;6.56;100.00
72157;BME280;60035;52.122;5.406;2024-03-02T05:05:54;100155.03;;;6.56;100.00
72157;BME280;60035;52.122;5.406;2024-03-02T05:08:25;100155.06;;;6.55;100.00
72157;BME280;60035;52.122;5.406;2024-03-02T05:10:59;100163.56;;;6.54;100.00
72157;BME280;60035;52.122;5.406;2024-03-02T05:13:52;100163.56;;;6.54;100.00
72157;BME280;60035;52.122;5.406;2024-03-02T05:16:21;100164.44;;;6.53;100.00
72157;BME280;60035;52.122;5.406;2024-03-02T05:18:52;100161.03;;;6.54;100.00
72157;BME280;60035;52.122;5.406;2024-03-02T05:21:23;100172.06;;;6.53;100.00
72157;BME280;60035;52.122;5.406;2024-03-02T05:23:55;100167.84;;;6.52;100.00
72157;BME280;60035;52.122;5.406;2024-03-02T05:26:29;100175.44;;;6.53;100.00
72157;BME280;60035;52.122;5.406;2024-03-02T05:29:00;100170.34;;;6.53;100.00
72157;BME280;60035;52.122;5.406;2024-03-02T05:31:31;100170.31;;;6.55;100.00
72157;BME280;60035;52.122;5.406;2024-03-02T05:34:03;100173.75;;;6.54;100.00
72157;BME280;60035;52.122;5.406;2024-03-02T05:36:35;100170.41;;;6.52;100.00
72157;BME280;60035;52.122;5.406;2024-03-02T05:39:06;100168.69;;;6.52;100.00
72157;BME280;60035;52.122;5.406;2024-03-02T05:41:41;100165.34;;;6.50;100.00
72157;BME280;60035;52.122;5.406;2024-03-02T05:44:12;100160.34;;;6.47;100.00
72157;BME280;60035;52.122;5.406;2024-03-02T05:46:43;100163.03;;;6.41;100.00
72157;BME280;60035;52.122;5.406;2024-03-02T05:49:15;100178.41;;;6.34;100.00
72157;BME280;60035;52.122;5.406;2024-03-02T05:51:46;100181.13;;;6.27;100.00
72157;BME280;60035;52.122;5.406;2024-03-02T05:54:18;100176.94;;;6.26;100.00
72157;BME280;60035;52.122;5.406;2024-03-02T05:56:52;100171.81;;;6.27;100.00
72157;BME280;60035;52.122;5.406;2024-03-02T05:59:23;100177.72;;;6.28;100.00
72157;BME280;60035;52.122;5.406;2024-03-02T06:01:55;100182.84;;;6.26;100.00
72157;BME280;60035;52.122;5.406;2024-03-02T06:04:26;100182.81;;;6.28;100.00
72157;BME280;60035;52.122;5.406;2024-03-02T06:06:58;100186.97;;;6.30;100.00
72157;BME280;60035;52.122;5.406;2024-03-02T06:09:29;100192.06;;;6.30;100.00
72157;BME280;60035;52.122;5.406;2024-03-02T06:12:04;100194.66;;;6.29;100.00
72157;BME280;60035;52.122;5.406;2024-03-02T06:14:35;100195.50;;;6.28;100.00
72157;BME280;60035;52.122;5.406;2024-03-02T06:17:07;100199.78;;;6.27;100.00
72157;BME280;60035;52.122;5.406;2024-03-02T06:19:38;100202.31;;;6.27;100.00
72157;BME280;60035;52.122;5.406;2024-03-02T06:22:09;100205.72;;;6.26;100.00
72157;BME280;60035;52.122;5.406;2024-03-02T06:24:41;100204.91;;;6.26;100.00
72157;BME280;60035;52.122;5.406;2024-03-02T06:27:15;100211.66;;;6.25;100.00
72157;BME280;60035;52.122;5.406;2024-03-02T06:29:46;100217.59;;;6.26;100.00
72157;BME280;60035;52.122;5.406;2024-03-02T06:32:19;100220.16;;;6.26;100.00
72157;BME280;60035;52.122;5.406;2024-03-02T06:34:50;100219.28;;;6.25;100.00
72157;BME280;60035;52.122;5.406;2024-03-02T06:37:23;100220.16;;;6.26;100.00
72157;BME280;60035;52.122;5.406;2024-03-02T06:39:54;100227.75;;;6.27;100.00
72157;BME280;60035;52.122;5.406;2024-03-02T06:42:29;100231.94;;;6.28;100.00
72157;BME280;60035;52.122;5.406;2024-03-02T06:45:02;100226.84;;;6.28;100.00
72157;BME280;60035;52.122;5.406;2024-03-02T06:47:34;100230.25;;;6.29;100.00
72157;BME280;60035;52.122;5.406;2024-03-02T06:50:05;100226.78;;;6.31;100.00
72157;BME280;60035;52.122;5.406;2024-03-02T06:52:37;100229.31;;;6.33;100.00
72157;BME280;60035;52.122;5.406;2024-03-02T06:55:09;100220.78;;;6.36;100.00
72157;BME280;60035;52.122;5.406;2024-03-02T06:57:43;100213.97;;;6.36;100.00
72157;BME280;60035;52.122;5.406;2024-03-02T07:00:16;100226.66;;;6.38;100.00
72157;BME280;60035;52.122;5.406;2024-03-02T07:02:48;100229.19;;;6.38;100.00
72157;BME280;60035;52.122;5.406;2024-03-02T07:05:19;100227.47;;;6.40;100.00
72157;BME280;60035;52.122;5.406;2024-03-02T07:07:51;100224.06;;;6.41;100.00
72157;BME280;60035;52.122;5.406;2024-03-02T07:10:23;100223.19;;;6.40;100.00
72157;BME280;60035;52.122;5.406;2024-03-02T07:12:56;100232.50;;;6.41;100.00
72157;BME280;60035;52.122;5.406;2024-03-02T07:15:28;100233.28;;;6.45;100.00
72157;BME280;60035;52.122;5.406;2024-03-02T07:18:18;100229.00;;;6.47;100.00
72157;BME280;60035;52.122;5.406;2024-03-02T07:20:49;100227.28;;;6.47;100.00
72157;BME280;60035;52.122;5.406;2024-03-02T07:23:20;100227.16;;;6.52;100.00
72157;BME280;60035;52.122;5.406;2024-03-02T07:25:54;100228.75;;;6.58;100.00
72157;BME280;60035;52.122;5.406;2024-03-02T07:28:34;100232.03;;;6.63;100.00
72157;BME280;60035;52.122;5.406;2024-03-02T07:31:05;100239.63;;;6.64;100.00
72157;BME280;60035;52.122;5.406;2024-03-02T07:33:37;100242.91;;;6.68;100.00
72157;BME280;60035;52.122;5.406;2024-03-02T07:36:09;100247.88;;;6.74;100.00
72157;BME280;60035;52.122;5.406;2024-03-02T07:38:40;100241.84;;;6.78;100.00
72157;BME280;60035;52.122;5.406;2024-03-02T07:41:12;100245.19;;;6.80;100.00
72157;BME280;60035;52.122;5.406;2024-03-02T07:43:47;100259.47;;;6.86;100.00
72157;BME280;60035;52.122;5.406;2024-03-02T07:46:18;100245.88;;;6.87;100.00
72157;BME280;60035;52.122;5.406;2024-03-02T07:48:50;100251.72;;;6.92;100.00
72157;BME280;60035;52.122;5.406;2024-03-02T07:51:22;100261.84;;;6.94;100.00
72157;BME280;60035;52.122;5.406;2024-03-02T07:53:54;100248.28;;;6.93;100.00
72157;BME280;60035;52.122;5.406;2024-03-02T07:56:25;100254.28;;;6.91;100.00
72157;BME280;60035;52.122;5.406;2024-03-02T07:59:00;100251.81;;;6.88;100.00
72157;BME280;60035;52.122;5.406;2024-03-02T08:01:32;100255.25;;;6.87;100.00
72157;BME280;60035;52.122;5.406;2024-03-02T08:04:03;100257.84;;;6.83;100.00
72157;BME280;60035;52.122;5.406;2024-03-02T08:06:35;100260.44;;;6.82;100.00
72157;BME280;60035;52.122;5.406;2024-03-02T08:09:07;100273.16;;;6.82;100.00
72157;BME280;60035;52.122;5.406;2024-03-02T08:11:39;100271.47;;;6.81;100.00
72157;BME280;60035;52.122;5.406;2024-03-02T08:14:13;100276.59;;;6.79;100.00
72157;BME280;60035;52.122;5.406;2024-03-02T08:16:45;100274.88;;;6.80;100.00
72157;BME280;60035;52.122;5.406;2024-03-02T08:19:17;100274.09;;;6.78;100.00
72157;BME280;60035;52.122;5.406;2024-03-02T08:21:48;100272.41;;;6.77;100.00
72157;BME280;60035;52.122;5.406;2024-03-02T08:24:20;100280.00;;;6.78;100.00
72157;BME280;60035;52.122;5.406;2024-03-02T08:26:51;100278.28;;;6.80;100.00
72157;BME280;60035;52.122;5.406;2024-03-02T08:29:25;100275.53;;;6.90;100.00
72157;BME280;60035;52.122;5.406;2024-03-02T08:31:57;100276.94;;;7.02;100.00
72157;BME280;60035;52.122;5.406;2024-03-02T08:34:28;100277.50;;;7.14;100.00
72157;BME280;60035;52.122;5.406;2024-03-02T08:37:02;100268.75;;;7.23;100.00
72157;BME280;60035;52.122;5.406;2024-03-02T08:39:33;100278.66;;;7.36;100.00
72157;BME280;60035;52.122;5.406;2024-03-02T08:42:05;100273.34;;;7.45;100.00
72157;BME280;60035;52.122;5.406;2024-03-02T08:44:39;100275.66;;;7.53;100.00
72157;BME280;60035;52.122;5.406;2024-03-02T08:47:11;100274.63;;;7.60;100.00
72157;BME280;60035;52.122;5.406;2024-03-02T08:49:42;100265.94;;;7.67;100.00
72157;BME280;60035;52.122;5.406;2024-03-02T08:52:13;100266.59;;;7.75;100.00
72157;BME280;60035;52.122;5.406;2024-03-02T08:54:45;100272.34;;;7.82;100.00
72157;BME280;60035;52.122;5.406;2024-03-02T08:57:16;100269.72;;;7.85;100.00
72157;BME280;60035;52.122;5.406;2024-03-02T08:59:50;100272.81;;;7.96;100.00
72157;BME280;60035;52.122;5.406;2024-03-02T09:02:21;100273.53;;;8.00;100.00
72157;BME280;60035;52.122;5.406;2024-03-02T09:04:53;100275.94;;;8.06;100.00
72157;BME280;60035;52.122;5.406;2024-03-02T09:07:25;100269.75;;;8.13;100.00
72157;BME280;60035;52.122;5.406;2024-03-02T09:09:59;100273.88;;;8.19;100.00
72157;BME280;60035;52.122;5.406;2024-03-02T09:12:30;100278.81;;;8.24;100.00
72157;BME280;60035;52.122;5.406;2024-03-02T09:15:12;100272.63;;;8.32;100.00
72157;BME280;60035;52.122;5.406;2024-03-02T09:17:44;100268.94;;;8.41;100.00
72157;BME280;60035;52.122;5.406;2024-03-02T09:20:15;100274.72;;;8.49;100.00
72157;BME280;60035;52.122;5.406;2024-03-02T09:22:47;100271.09;;;8.57;100.00
72157;BME280;60035;52.122;5.406;2024-03-02T09:25:18;100267.47;;;8.64;100.00
72157;BME280;60035;52.122;5.406;2024-03-02T09:27:50;100269.97;;;8.65;100.00
72157;BME280;60035;52.122;5.406;2024-03-02T09:30:24;100279.09;;;8.73;100.00
72157;BME280;60035;52.122;5.406;2024-03-02T09:32:55;100276.31;;;8.80;100.00
72157;BME280;60035;52.122;5.406;2024-03-02T09:35:29;100281.28;;;8.85;100.00
72157;BME280;60035;52.122;5.406;2024-03-02T09:38:02;100278.34;;;8.97;100.00
72157;BME280;60035;52.122;5.406;2024-03-02T09:40:34;100281.41;;;9.07;100.00
72157;BME280;60035;52.122;5.406;2024-03-02T09:43:05;100282.03;;;9.15;100.00
72157;BME280;60035;52.122;5.406;2024-03-02T09:45:39;100293.66;;;9.24;100.00
72157;BME280;60035;52.122;5.406;2024-03-02T09:48:11;100291.09;;;9.24;100.00
72157;BME280;60035;52.122;5.406;2024-03-02T09:50:46;100299.50;;;9.28;100.00
72157;BME280;60035;52.122;5.406;2024-03-02T09:53:18;100301.19;;;9.27;100.00
72157;BME280;60035;52.122;5.406;2024-03-02T09:55:49;100281.38;;;9.36;100.00
72157;BME280;60035;52.122;5.406;2024-03-02T09:58:21;100291.28;;;9.45;100.00
72157;BME280;60035;52.122;5.406;2024-03-02T10:00:55;100291.63;;;9.59;100.00
72157;BME280;60035;52.122;5.406;2024-03-02T10:03:29;100289.84;;;9.61;100.00
72157;BME280;60035;52.122;5.406;2024-03-02T10:06:19;100287.78;;;9.73;100.00
72157;BME280;60035;52.122;5.406;2024-03-02T10:08:50;100289.81;;;9.87;100.00
72157;BME280;60035;52.122;5.406;2024-03-02T10:11:29;100286.88;;;9.97;100.00
72157;BME280;60035;52.122;5.406;2024-03-02T10:14:06;100292.63;;;10.04;100.00
72157;BME280;60035;52.122;5.406;2024-03-02T10:16:43;100299.25;;;10.10;99.89
72157;BME280;60035;52.122;5.406;2024-03-02T10:19:18;100292.19;;;10.16;99.51
72157;BME280;60035;52.122;5.406;2024-03-02T10:22:03;100292.84;;;10.22;99.39
72157;BME280;60035;52.122;5.406;2024-03-02T10:24:38;100285.91;;;10.25;96.94
72157;BME280;60035;52.122;5.406;2024-03-02T10:27:11;100283.97;;;10.30;95.13
72157;BME280;60035;52.122;5.406;2024-03-02T10:29:47;100281.88;;;10.42;94.84
72157;BME280;60035;52.122;5.406;2024-03-02T10:32:22;100286.81;;;10.46;93.92
72157;BME280;60035;52.122;5.406;2024-03-02T10:34:54;100285.84;;;10.50;93.44
72157;BME280;60035;52.122;5.406;2024-03-02T10:37:28;100284.47;;;10.64;93.83
72157;BME280;60035;52.122;5.406;2024-03-02T10:40:04;100275.19;;;10.61;91.80
72157;BME280;60035;52.122;5.406;2024-03-02T10:42:37;100268.16;;;10.66;91.80
72157;BME280;60035;52.122;5.406;2024-03-02T10:45:10;100267.84;;;10.74;90.56
72157;BME280;60035;52.122;5.406;2024-03-02T10:47:44;100264.06;;;10.83;89.73
72157;BME280;60035;52.122;5.406;2024-03-02T10:50:18;100256.88;;;10.93;90.35
72157;BME280;60035;52.122;5.406;2024-03-02T10:52:49;100257.19;;;11.06;89.55
72157;BME280;60035;52.122;5.406;2024-03-02T10:55:20;100255.28;;;11.11;89.26
72157;BME280;60035;52.122;5.406;2024-03-02T10:57:53;100242.97;;;11.19;88.55
72157;BME280;60035;52.122;5.406;2024-03-02T11:00:26;100242.53;;;11.30;88.66
72157;BME280;60035;52.122;5.406;2024-03-02T11:03:06;100245.00;;;11.52;88.15
72157;BME280;60035;52.122;5.406;2024-03-02T11:05:40;100232.63;;;11.62;87.95
72157;BME280;60035;52.122;5.406;2024-03-02T11:08:13;100242.66;;;11.66;87.13
72157;BME280;60035;52.122;5.406;2024-03-02T11:10:51;100250.84;;;11.56;83.21
72157;BME280;60035;52.122;5.406;2024-03-02T11:13:27;100241.47;;;11.55;83.66
72157;BME280;60035;52.122;5.406;2024-03-02T11:16:12;100249.31;;;11.71;81.61
72157;BME280;60035;52.122;5.406;2024-03-02T11:18:49;100250.94;;;11.73;81.90
72157;BME280;60035;52.122;5.406;2024-03-02T11:21:21;100252.25;;;11.82;81.36
72157;BME280;60035;52.122;5.406;2024-03-02T11:23:52;100261.22;;;11.92;80.67
72157;BME280;60035;52.122;5.406;2024-03-02T11:26:24;100255.88;;;11.78;80.09
72157;BME280;60035;52.122;5.406;2024-03-02T11:28:56;100254.75;;;11.83;80.54
72157;BME280;60035;52.122;5.406;2024-03-02T11:34:33;100243.56;;;12.24;78.99
72157;BME280;60035;52.122;5.406;2024-03-02T11:37:08;100247.88;;;12.24;76.45
72157;BME280;60035;52.122;5.406;2024-03-02T11:39:40;100242.75;;;12.24;75.72
72157;BME280;60035;52.122;5.406;2024-03-02T11:42:12;100238.44;;;12.24;74.56
72157;BME280;60035;52.122;5.406;2024-03-02T11:44:45;100233.13;;;12.27;74.81
72157;BME280;60035;52.122;5.406;2024-03-02T11:47:18;100232.88;;;12.33;73.75
72157;BME280;60035;52.122;5.406;2024-03-02T11:49:52;100230.06;;;12.38;74.03
72157;BME280;60035;52.122;5.406;2024-03-02T11:52:24;100228.38;;;12.56;74.73
72157;BME280;60035;52.122;5.406;2024-03-02T11:54:58;100222.50;;;12.54;71.77
72157;BME280;60035;52.122;5.406;2024-03-02T11:57:31;100225.72;;;12.58;70.64
72157;BME280;60035;52.122;5.406;2024-03-02T12:00:03;100229.75;;;12.63;70.59
72157;BME280;60035;52.122;5.406;2024-03-02T12:02:35;100208.97;;;12.68;69.83
72157;BME280;60035;52.122;5.406;2024-03-02T12:05:12;100216.16;;;12.79;70.22
72157;BME280;60035;52.122;5.406;2024-03-02T12:07:44;100222.44;;;12.91;69.91
72157;BME280;60035;52.122;5.406;2024-03-02T12:10:17;100210.34;;;12.93;68.93
72157;BME280;60035;52.122;5.406;2024-03-02T12:12:55;100199.81;;;12.97;69.02
72157;BME280;60035;52.122;5.406;2024-03-02T12:15:29;100199.28;;;13.08;67.27
72157;BME280;60035;52.122;5.406;2024-03-02T12:18:01;100197.41;;;13.12;66.64
72157;BME280;60035;52.122;5.406;2024-03-02T12:20:36;100198.31;;;13.11;66.94
72157;BME280;60035;52.122;5.406;2024-03-02T12:23:07;100202.31;;;13.16;66.15
72157;BME280;60035;52.122;5.406;2024-03-02T12:25:42;100191.13;;;13.00;66.77
72157;BME280;60035;52.122;5.406;2024-03-02T12:28:14;100197.63;;;12.90;66.61
72157;BME280;60035;52.122;5.406;2024-03-02T12:30:45;100189.59;;;13.13;66.99
72157;BME280;60035;52.122;5.406;2024-03-02T12:33:18;100182.28;;;13.23;66.54
72157;BME280;60035;52.122;5.406;2024-03-02T12:35:53;100171.13;;;13.23;66.04
72157;BME280;60035;52.122;5.406;2024-03-02T12:38:25;100190.06;;;13.22;64.85
72157;BME280;60035;52.122;5.406;2024-03-02T12:40:57;100190.38;;;13.15;64.98
72157;BME280;60035;52.122;5.406;2024-03-02T12:43:32;100183.00;;;13.25;65.94
72157;BME280;60035;52.122;5.406;2024-03-02T12:46:05;100170.91;;;13.45;66.41
72157;BME280;60035;52.122;5.406;2024-03-02T12:48:40;100170.09;;;13.60;67.46
72157;BME280;60035;52.122;5.406;2024-03-02T12:51:14;100163.50;;;13.55;66.11
72157;BME280;60035;52.122;5.406;2024-03-02T12:53:46;100161.13;;;13.68;66.61
72157;BME280;60035;52.122;5.406;2024-03-02T12:56:24;100154.16;;;13.70;66.04
72157;BME280;60035;52.122;5.406;2024-03-02T12:58:56;100151.25;;;13.60;65.59
72157;BME280;60035;52.122;5.406;2024-03-02T13:01:31;100154.16;;;13.54;65.31
72157;BME280;60035;52.122;5.406;2024-03-02T13:04:03;100155.66;;;13.58;65.00
72157;BME280;60035;52.122;5.406;2024-03-02T13:06:37;100148.84;;;13.57;66.68
72157;BME280;60035;52.122;5.406;2024-03-02T13:09:11;100151.34;;;13.74;65.88
72157;BME280;60035;52.122;5.406;2024-03-02T13:11:43;100156.38;;;13.76;66.58
72157;BME280;60035;52.122;5.406;2024-03-02T13:14:15;100154.97;;;13.70;66.13
72157;BME280;60035;52.122;5.406;2024-03-02T13:16:46;100147.44;;;13.83;65.08
72157;BME280;60035;52.122;5.406;2024-03-02T13:19:20;100158.63;;;13.82;65.60
72157;BME280;60035;52.122;5.406;2024-03-02T13:21:54;100157.72;;;13.83;65.47
72157;BME280;60035;52.122;5.406;2024-03-02T13:24:26;100154.34;;;13.82;65.93